Latest Weather Observations for Cape Otway

IDV60801

Issued at 9:02 am EST Sunday 26 April 2015 (issued every 30 minutes, with the page automatically refreshed every 10 minutes)

About weather observations | Map of weather stations | Latest weather observations for VIC | Other Formats
Station Details ID: 090015 Name: CAPE OTWAY LIGHTHOUSE Lat: -38.86 Lon: 143.51 Height: 82.0 m
Data from the previous 72 hours. | See also: Recent months at Cape Otway
Date/Time
EST
Temp
°C
App
Temp
°C
Dew
Point
Rel
Hum
%
Delta-T
°C
Wind Press
QNH
hPa
Press
MSL
hPa
Rain
since 9 am
mm
Dir
 
Spd
km/h
Gust
km/h
Spd
kts
Gust
kts
26/09:00am 12.0 5.6 8.5 79 1.7 SSW 32 50 17 27 1019.4 1019.3 3.0
26/08:51am 11.9 4.5 8.2 78 1.8 SSW 37 50 20 27 1019.2 - 3.0
26/08:30am 12.4 5.6 7.5 72 2.4 WSW 33 50 18 27 1019.1 - 3.0
26/08:21am 12.1 5.5 7.6 74 2.2 SW 32 50 17 27 1018.9 - 3.0
26/08:00am 11.4 4.3 7.9 79 1.7 SW 35 50 19 27 1018.8 - 3.0
26/07:32am 11.3 5.7 8.7 84 1.3 SW 28 48 15 26 1018.4 - 3.0
26/07:30am 11.8 6.4 9.5 86 1.2 SW 28 43 15 23 1018.3 - 3.0
26/07:00am 12.1 5.6 8.0 76 2.0 SSW 32 43 17 23 1017.9 - 2.8
26/06:41am 11.4 4.6 7.9 79 1.7 SSW 33 52 18 28 1017.9 - 2.8
26/06:30am 11.9 5.3 8.4 79 1.7 SSW 33 50 18 27 1017.6 - 2.8
26/06:11am 10.9 5.0 9.2 89 0.9 SW 30 50 16 27 1017.8 - 2.8
26/06:03am 11.2 2.8 8.8 85 1.2 SSW 43 50 23 27 1017.5 - 2.6
26/06:00am 11.0 5.0 8.6 85 1.2 SW 30 48 16 26 1017.6 1017.5 2.6
26/05:30am 10.8 4.3 9.1 89 0.8 SW 33 46 18 25 1017.5 - 2.6
26/05:00am 10.6 4.0 8.5 87 1.0 SSW 33 52 18 28 1017.2 - 2.6
26/04:30am 11.2 5.0 7.9 80 1.6 SSW 30 52 16 28 1016.9 - 2.4
26/04:17am 11.8 5.9 9.2 84 1.3 SSW 30 48 16 26 1016.7 - 2.4
26/04:00am 12.3 6.3 8.8 79 1.8 SSW 30 41 16 22 1016.8 - 2.4
26/03:30am 11.7 4.5 7.6 76 2.0 SSW 35 48 19 26 1016.7 - 2.4
26/03:00am 11.7 6.1 8.6 81 1.5 SSW 28 43 15 23 1016.7 1016.6 2.4
26/02:47am 11.1 4.8 9.0 87 1.0 SSW 32 50 17 27 1016.7 - 2.4
26/02:30am 12.1 6.3 9.3 83 1.4 SW 30 43 16 23 1016.4 - 2.4
26/02:00am 12.0 5.9 8.1 77 1.9 SSW 30 41 16 22 1016.4 - 2.4
26/01:30am 11.8 4.7 8.1 78 1.8 SSW 35 46 19 25 1016.4 - 2.4
26/01:10am 11.7 6.0 8.4 80 1.6 SSW 28 46 15 25 1016.2 - 2.4
26/01:00am 11.4 5.8 8.8 84 1.3 SSW 28 43 15 23 1016.4 - 2.4
26/12:41am 11.6 6.1 9.2 85 1.2 SSW 28 44 15 24 1016.2 - 2.4
26/12:30am 11.1 7.3 9.2 88 1.0 SSW 19 26 10 14 1016.3 - 2.4
26/12:04am 11.6 5.6 8.6 82 1.5 SSW 30 48 16 26 1015.9 - 2.2
26/12:00am 12.0 5.8 7.7 75 2.1 SSW 30 39 16 21 1016.2 1016.1 2.2
 
Date/Time
EST
Temp
°C
App
Temp
°C
Dew
Point
Rel
Hum
%
Delta-T
°C
Wind Press
QNH
hPa
Press
MSL
hPa
Rain
since 9 am
mm
Dir
 
Spd
km/h
Gust
km/h
Spd
kts
Gust
kts
25/11:30pm 12.3 5.3 7.0 70 2.6 SSW 33 50 18 27 1015.9 - 2.2
25/11:25pm 12.4 6.6 7.9 74 2.2 SSW 28 50 15 27 1015.7 - 2.2
25/11:00pm 12.2 6.4 7.9 75 2.1 SSW 28 44 15 24 1016.0 - 2.2
25/10:56pm 12.0 5.3 7.3 73 2.3 SSW 32 50 17 27 1016.0 - 2.2
25/10:30pm 12.1 6.2 7.6 74 2.2 SSW 28 44 15 24 1015.9 - 2.2
25/10:00pm 12.8 7.5 7.0 68 2.8 SSW 24 41 13 22 1015.8 - 2.0
25/09:30pm 12.7 6.9 6.1 64 3.1 SSW 26 39 14 21 1015.7 - 2.0
25/09:00pm 12.6 5.4 5.8 63 3.2 SSW 33 46 18 25 1015.5 1015.5 2.0
25/08:30pm 12.7 6.5 6.1 64 3.1 SSW 28 44 15 24 1015.0 - 2.0
25/08:00pm 12.8 8.5 7.0 68 2.8 SW 19 28 10 15 1014.9 - 2.0
25/07:30pm 12.7 8.1 6.7 67 2.9 SSW 20 35 11 19 1014.7 - 2.0
25/07:00pm 12.6 7.0 7.1 69 2.7 SSW 26 39 14 21 1014.1 - 2.0
25/06:30pm 12.6 6.1 8.3 75 2.1 SSW 32 43 17 23 1013.9 - 2.0
25/06:00pm 12.4 6.9 9.1 80 1.7 SSW 28 41 15 22 1013.4 1013.3 2.0
25/05:30pm 12.6 6.6 8.7 77 2.0 SSW 30 43 16 23 1013.0 - 2.0
25/05:00pm 12.8 6.0 9.3 79 1.8 SSW 35 50 19 27 1012.7 - 2.0
25/04:44pm 12.9 7.6 9.7 81 1.6 SSW 28 48 15 26 1012.5 - 2.0
25/04:30pm 12.9 8.1 10.4 85 1.3 SSW 26 39 14 21 1012.3 - 2.0
25/04:00pm 13.2 7.9 10.0 81 1.7 SSW 28 39 15 21 1011.7 - 2.0
25/03:30pm 13.6 9.0 9.8 78 2.0 SW 24 33 13 18 1011.3 - 2.0
25/03:00pm 13.7 9.0 10.7 82 1.6 SW 26 37 14 20 1010.7 1010.6 2.0
25/02:30pm 13.7 9.3 10.5 81 1.7 SW 24 33 13 18 1010.4 - 2.0
25/02:00pm 13.9 10.8 11.6 86 1.2 WSW 19 30 10 16 1010.2 - 2.0
25/01:30pm 13.7 10.0 11.6 87 1.1 SW 22 30 12 16 1010.0 - 2.0
25/01:00pm 14.3 12.2 11.3 82 1.6 WSW 13 24 7 13 1010.0 - 2.0
25/12:30pm 14.4 11.7 10.2 76 2.2 SW 15 22 8 12 1010.1 - 2.0
25/12:00pm 14.3 12.6 11.3 82 1.6 SW 11 17 6 9 1010.1 1010.0 2.0
25/11:30am 13.9 12.2 11.2 84 1.4 W 11 20 6 11 1010.0 - 2.0
25/11:00am 13.5 11.5 11.6 88 1.0 WSW 13 20 7 11 1009.8 - 2.0
25/10:30am 13.2 11.7 11.8 91 0.8 W 11 20 6 11 1009.6 - 2.0
25/10:00am 13.2 11.4 12.1 93 0.6 WSW 13 30 7 16 1009.4 - 2.0
25/09:30am 12.8 10.2 12.0 95 0.4 SSE 17 26 9 14 1009.3 - 1.0
25/09:00am 12.7 11.6 12.1 96 0.3 SE 9 19 5 10 1009.2 1009.1 19.4
25/08:30am 11.9 10.6 11.3 96 0.3 N 9 13 5 7 1009.0 - 15.0
25/08:00am 12.2 10.6 11.6 96 0.3 NNW 11 15 6 8 1008.3 - 10.8
25/07:30am 12.5 10.6 11.9 96 0.3 NW 13 19 7 10 1007.8 - 9.2
25/07:00am 12.4 9.7 11.6 95 0.4 W 17 24 9 13 1007.6 - 6.6
25/06:30am 12.6 10.7 11.8 95 0.4 W 13 22 7 12 1007.4 - 5.4
25/06:00am 12.1 10.4 11.3 95 0.4 NNW 11 22 6 12 1007.0 1006.9 5.2
25/05:30am 12.1 9.7 11.3 95 0.4 NW 15 22 8 12 1006.8 - 4.6
25/05:00am 12.1 8.9 11.3 95 0.4 NW 19 28 10 15 1006.5 - 4.6
25/04:30am 11.5 8.1 10.7 95 0.4 NW 19 26 10 14 1006.1 - 4.6
25/04:00am 11.4 8.0 10.6 95 0.4 NW 19 24 10 13 1006.0 - 4.6
25/03:30am 11.3 7.9 10.5 95 0.4 NNW 19 22 10 12 1006.0 - 4.6
25/03:00am 11.3 8.3 10.5 95 0.4 NW 17 24 9 13 1006.0 1005.9 4.6
25/02:30am 11.5 8.5 10.7 95 0.4 NW 17 20 9 11 1006.0 - 4.6
25/02:00am 11.5 8.1 10.7 95 0.4 NW 19 26 10 14 1006.0 - 4.6
25/01:30am 11.8 8.5 11.0 95 0.4 NW 19 24 10 13 1005.9 - 4.4
25/01:00am 12.1 9.7 11.3 95 0.4 NNW 15 24 8 13 1006.0 - 4.4
25/12:30am 12.2 9.8 11.4 95 0.4 NNW 15 20 8 11 1005.9 - 4.4
25/12:00am 12.0 10.0 11.4 96 0.3 NNW 13 17 7 9 1005.7 1005.6 4.4
 
Date/Time
EST
Temp
°C
App
Temp
°C
Dew
Point
Rel
Hum
%
Delta-T
°C
Wind Press
QNH
hPa
Press
MSL
hPa
Rain
since 9 am
mm
Dir
 
Spd
km/h
Gust
km/h
Spd
kts
Gust
kts
24/11:30pm 11.8 9.3 11.0 95 0.4 NW 15 19 8 10 1005.6 - 4.4
24/11:00pm 11.9 9.4 11.1 95 0.4 NNW 15 19 8 10 1005.7 - 4.4
24/10:30pm 12.0 9.2 11.2 95 0.4 NNW 17 24 9 13 1005.6 - 4.4
24/10:00pm 12.0 9.2 11.2 95 0.4 NNW 17 24 9 13 1005.5 - 4.4
24/09:30pm 12.2 9.4 11.4 95 0.4 NW 17 22 9 12 1005.3 - 4.4
24/09:00pm 12.4 10.4 11.6 95 0.4 WNW 13 19 7 10 1005.2 1005.1 4.4
24/08:30pm 12.4 9.7 11.6 95 0.4 NW 17 24 9 13 1005.4 - 4.4
24/08:00pm 13.7 13.3 12.9 95 0.4 N 7 9 4 5 1004.8 - 2.4
24/07:30pm 13.4 14.2 12.6 95 0.4 CALM 0 0 0 0 1004.8 - 2.4
24/07:00pm 13.2 13.9 12.3 94 0.5 CALM 0 0 0 0 1004.7 - 2.4
24/06:30pm 13.2 13.9 12.3 94 0.5 CALM 0 0 0 0 1004.4 - 2.4
24/06:00pm 13.9 14.8 12.8 93 0.6 CALM 0 0 0 0 1004.0 1003.8 2.4
24/05:30pm 14.6 15.6 13.3 92 0.7 CALM 0 0 0 0 1003.8 - 2.4
24/05:00pm 15.1 15.5 13.8 92 0.7 WSW 4 7 2 4 1003.4 - 2.4
24/04:30pm 14.9 14.4 13.8 93 0.6 W 9 11 5 6 1003.3 - 2.4
24/04:00pm 14.7 14.1 13.6 93 0.6 W 9 13 5 7 1003.2 - 2.4
24/03:30pm 14.7 14.2 13.7 94 0.6 W 9 13 5 7 1003.2 - 2.4
24/03:00pm 14.4 13.5 13.6 95 0.4 W 11 15 6 8 1003.2 1003.0 2.4
24/02:30pm 14.3 13.4 13.7 96 0.3 W 11 13 6 7 1003.2 - 2.4
24/02:00pm 14.3 12.6 13.7 96 0.3 W 15 19 8 10 1003.3 - 2.4
24/01:30pm 14.3 13.0 13.7 96 0.3 W 13 19 7 10 1003.5 - 2.2
24/01:00pm 14.3 12.6 13.7 96 0.3 W 15 19 8 10 1003.7 - 2.2
24/12:30pm 14.3 13.0 13.7 96 0.3 WNW 13 19 7 10 1004.0 - 1.8
24/12:00pm 14.8 13.7 14.2 96 0.3 WNW 13 19 7 10 1004.2 1004.0 1.4
24/11:30am 14.9 13.8 14.4 97 0.3 W 13 17 7 9 1004.6 - 1.4
24/11:00am 14.6 13.4 14.1 97 0.3 W 13 19 7 10 1004.6 - 1.4
24/10:30am 14.6 13.5 14.3 98 0.2 WSW 13 20 7 11 1004.6 - 1.4
24/10:00am 14.5 13.0 14.2 98 0.2 WSW 15 24 8 13 1004.8 - 0.8
24/09:30am 14.5 13.8 14.2 98 0.2 SW 11 13 6 7 1004.9 - 0.6
24/09:00am 14.2 13.7 13.9 98 0.2 W 9 15 5 8 1005.2 1005.1 9.6
24/08:30am 14.2 13.7 13.9 98 0.2 W 9 13 5 7 1005.1 - 8.0
24/08:00am 14.3 13.5 14.0 98 0.2 SW 11 13 6 7 1005.2 - 6.0
24/07:30am 14.4 14.4 14.1 98 0.2 SW 7 11 4 6 1005.1 - 4.0
24/07:00am 14.3 12.7 14.0 98 0.2 SW 15 20 8 11 1005.2 - 3.4
24/06:30am 14.2 12.1 13.7 97 0.3 WSW 17 22 9 12 1005.0 - 3.4
24/06:00am 14.2 11.6 13.7 97 0.3 SW 20 28 11 15 1004.9 1004.8 3.2
24/05:30am 14.3 11.9 13.8 97 0.3 SW 19 24 10 13 1005.1 - 3.2
24/05:00am 14.4 12.0 13.9 97 0.3 SW 19 24 10 13 1005.3 - 3.0
24/04:30am 14.5 14.4 14.0 97 0.3 W 7 11 4 6 1005.5 - 2.4
24/04:00am 14.4 13.9 13.8 96 0.3 WNW 9 13 5 7 1005.7 - 1.6
24/03:30am 14.3 13.8 13.7 96 0.3 WNW 9 13 5 7 1006.1 - 1.4
24/03:00am 14.3 13.8 13.7 96 0.3 NW 9 13 5 7 1006.7 1006.6 1.2
24/02:30am 14.3 14.1 13.7 96 0.3 NW 7 9 4 5 1007.3 - 1.0
24/02:00am 14.8 14.9 14.0 95 0.5 SW 6 9 3 5 1007.7 - 0.6
24/01:30am 14.5 15.7 13.7 95 0.4 CALM 0 0 0 0 1007.9 - 0.2
24/01:00am 14.5 15.3 13.7 95 0.4 NNE 2 6 1 3 1008.6 - 0.0
24/12:30am 14.8 14.7 14.0 95 0.5 E 7 13 4 7 1009.0 - 0.0
24/12:00am 14.7 14.2 13.7 94 0.6 E 9 15 5 8 1009.3 1009.2 0.0
 
Date/Time
EST
Temp
°C
App
Temp
°C
Dew
Point
Rel
Hum
%
Delta-T
°C
Wind Press
QNH
hPa
Press
MSL
hPa
Rain
since 9 am
mm
Dir
 
Spd
km/h
Gust
km/h
Spd
kts
Gust
kts
23/11:30pm 14.5 13.5 13.5 94 0.6 E 11 15 6 8 1009.8 - 0.0
23/11:00pm 14.4 13.4 13.3 93 0.6 ENE 11 17 6 9 1010.3 - 0.0
23/10:30pm 14.4 12.9 13.1 92 0.7 ENE 13 22 7 12 1010.7 - 0.0
23/10:00pm 14.9 13.0 13.1 89 1.0 E 15 24 8 13 1011.1 - 0.0
23/09:30pm 15.2 13.7 13.1 87 1.2 E 13 19 7 10 1011.6 - 0.0
23/09:00pm 15.2 12.7 13.4 89 1.0 ESE 19 24 10 13 1011.5 1011.4 0.0
23/08:30pm 15.2 12.1 13.4 89 1.0 ESE 22 32 12 17 1011.7 - 0.0
23/08:00pm 14.9 13.0 12.9 88 1.1 E 15 26 8 14 1012.4 - 0.0
23/07:30pm 15.1 11.9 13.1 88 1.1 E 22 33 12 18 1012.6 - 0.0
23/07:00pm 15.1 12.4 13.0 87 1.2 E 19 28 10 15 1013.0 - 0.0
23/06:30pm 15.4 13.6 13.2 87 1.2 E 15 28 8 15 1013.4 - 0.0
23/06:00pm 15.2 12.9 13.1 87 1.2 E 17 24 9 13 1013.4 1013.3 0.0
23/05:30pm 15.1 13.5 12.8 86 1.3 E 13 22 7 12 1013.7 - 0.0
23/05:00pm 15.5 13.5 12.8 84 1.5 E 15 24 8 13 1013.4 - 0.0
23/04:30pm 15.6 13.6 12.7 83 1.6 E 15 22 8 12 1013.9 - 0.0
23/04:00pm 15.8 13.9 13.1 84 1.5 E 15 22 8 12 1014.3 - 0.0
23/03:30pm 15.2 12.2 12.1 82 1.7 E 19 35 10 19 1014.5 - 0.0
23/03:00pm 15.7 12.5 13.2 85 1.4 E 22 30 12 16 1015.2 1015.2 0.0
23/02:30pm 15.6 12.5 13.4 87 1.2 E 22 33 12 18 1015.3 - 0.0
23/02:00pm 15.6 11.3 13.3 86 1.3 ESE 28 35 15 19 1015.5 - 0.0
23/01:30pm 15.4 10.3 13.2 87 1.2 ESE 32 39 17 21 1015.8 - 0.0
23/01:00pm 15.7 11.1 13.4 86 1.3 ESE 30 39 16 21 1016.4 - 0.0
23/12:30pm 15.5 10.4 13.2 86 1.3 ESE 32 43 17 23 1017.0 - 0.0
23/12:00pm 16.1 11.8 13.2 83 1.6 ESE 28 37 15 20 1017.6 1017.5 0.0
23/11:30am 15.6 10.9 13.1 85 1.4 ESE 30 41 16 22 1018.2 - 0.0
23/11:00am 15.5 10.7 13.0 85 1.4 ESE 30 39 16 21 1018.9 - 0.0
23/10:30am 15.3 10.5 12.8 85 1.4 ESE 30 43 16 23 1018.9 - 0.0
23/10:00am 15.3 12.4 13.0 86 1.3 SE 20 30 11 16 1019.4 - 0.0
23/09:30am 15.2 11.9 12.9 86 1.3 SE 22 32 12 17 1019.7 - 0.0

Other Formats:

Comma delimited format used in spreadsheet applications
http://www.bom.gov.au/fwo/IDV60801/IDV60801.94842.axf

JavaScript Object Notation format (JSON) in row-major order
http://www.bom.gov.au/fwo/IDV60801/IDV60801.94842.json